Time;durP1;ratioP1;P1;durP2;ratioP2;P2;SDS_P1;SDS_P2;PMS_P1;PMS_P2;Temp;Humidity;BMP_temperature;BMP_pressure;BME280_temperature;BME280_humidity;BME280_pressure;Samples;Min_cycle;Max_cycle;Signal;HPM_P1;HPM_P2
2022/10/20 00:00:32;;;;;;;21.80;19.70;;;;;;;4.12;99.60;98876.12;105291;1323;22186;-82
2022/10/20 00:03:21;;;;;;;24.20;21.80;;;;;;;4.07;99.22;98883.34;105308;1324;22207;-80
2022/10/20 00:05:49;;;;;;;26.90;24.40;;;;;;;4.07;98.96;98886.95;105485;1317;22179;-80
2022/10/20 00:08:17;;;;;;;31.10;28.00;;;;;;;4.01;98.68;98888.37;105513;1303;22168;-80
2022/10/20 00:10:53;;;;;;;29.80;26.80;;;;;;;3.91;98.12;98886.90;105173;1324;22207;-81
2022/10/20 00:13:21;;;;;;;27.00;24.40;;;;;;;3.84;98.18;98880.70;105301;1324;22196;-81
2022/10/20 00:15:54;;;;;;;29.30;26.40;;;;;;;3.83;98.45;98877.11;105284;1324;22213;-80
2022/10/20 00:18:22;;;;;;;28.60;26.10;;;;;;;3.81;98.20;98871.89;105296;1324;22220;-80
2022/10/20 00:20:51;;;;;;;34.30;31.00;;;;;;;3.79;98.19;98868.53;105285;1309;22689;-80
2022/10/20 00:23:19;;;;;;;28.80;26.10;;;;;;;3.74;98.09;98872.42;105044;1324;22819;-81
2022/10/20 00:25:47;;;;;;;22.30;20.20;;;;;;;3.68;97.78;98871.73;105258;1316;22186;-79
2022/10/20 00:28:15;;;;;;;22.10;20.10;;;;;;;3.62;98.22;98869.58;105283;1324;22116;-80
2022/10/20 00:30:42;;;;;;;24.30;21.90;;;;;;;3.52;98.42;98867.19;105252;1324;22195;-80
2022/10/20 00:33:10;;;;;;;25.60;23.10;;;;;;;3.46;98.17;98869.75;105043;1324;22195;-81
2022/10/20 00:35:38;;;;;;;47.10;42.90;;;;;;;3.44;97.84;98867.20;105070;1324;23495;-80
2022/10/20 00:38:06;;;;;;;40.70;37.10;;;;;;;3.45;97.59;98873.15;105281;1324;22222;-80
2022/10/20 00:40:34;;;;;;;33.60;30.60;;;;;;;3.42;97.72;98873.98;105282;1319;22973;-80
2022/10/20 00:43:02;;;;;;;27.40;24.80;;;;;;;3.36;97.20;98875.02;105316;1324;22650;-80
2022/10/20 00:45:30;;;;;;;27.00;24.30;;;;;;;3.32;97.39;98876.02;105066;1324;22124;-80
2022/10/20 00:48:03;;;;;;;25.30;22.70;;;;;;;3.30;97.52;98870.80;105654;1306;22209;-80
2022/10/20 00:50:38;;;;;;;20.00;18.10;;;;;;;3.23;97.16;98874.46;105592;1308;22119;-79
2022/10/20 00:53:07;;;;;;;25.10;22.80;;;;;;;3.15;96.67;98873.30;105294;1323;22208;-80
2022/10/20 00:55:39;;;;;;;28.30;25.70;;;;;;;3.08;97.19;98873.81;105575;1302;22800;-80
2022/10/20 00:58:07;;;;;;;36.00;32.90;;;;;;;3.04;97.40;98873.05;105269;1324;22352;-80
2022/10/20 01:00:38;;;;;;;32.80;29.80;;;;;;;2.98;97.23;98866.49;105056;1324;22205;-80
2022/10/20 01:03:12;;;;;;;36.50;33.20;;;;;;;2.89;96.70;98864.98;105282;1324;22069;-81
2022/10/20 01:05:40;;;;;;;25.10;22.60;;;;;;;2.84;97.18;98862.88;105639;1316;22197;-80
2022/10/20 01:08:07;;;;;;;23.30;21.20;;;;;;;2.82;96.97;98861.11;105290;1323;22241;-80
2022/10/20 01:10:42;;;;;;;29.20;26.50;;;;;;;2.76;96.93;98860.36;105281;1323;22279;-80
2022/10/20 01:13:16;;;;;;;52.60;47.80;;;;;;;2.68;97.04;98861.23;104972;1324;22454;-80
2022/10/20 01:16:02;;;;;;;26.90;24.10;;;;;;;2.62;97.38;98865.27;105287;1317;22201;-80
2022/10/20 01:18:37;;;;;;;22.30;20.10;;;;;;;2.50;97.00;98867.80;105201;1324;22110;-80
2022/10/20 01:21:27;;;;;;;29.60;26.90;;;;;;;2.47;97.21;98864.35;105235;1324;22364;-81
2022/10/20 01:24:07;;;;;;;25.00;22.40;;;;;;;2.46;97.25;98869.39;105294;1323;22890;-80
2022/10/20 01:26:56;;;;;;;26.80;24.00;;;;;;;2.48;96.98;98872.27;105302;1324;22186;-80
2022/10/20 01:29:29;;;;;;;26.50;23.70;;;;;;;2.34;97.18;98871.59;105562;1308;22817;-80
2022/10/20 01:32:17;;;;;;;29.70;26.90;;;;;;;2.23;97.28;98863.48;105531;1310;22167;-80
2022/10/20 01:35:00;;;;;;;30.50;27.80;;;;;;;2.20;97.43;98859.69;105651;1317;22052;-80
2022/10/20 01:37:34;;;;;;;54.70;49.80;;;;;;;2.16;96.97;98862.23;105331;1323;22129;-80
2022/10/20 01:40:20;;;;;;;28.50;25.70;;;;;;;2.16;97.48;98861.38;105204;1324;22199;-80
2022/10/20 01:42:52;;;;;;;21.20;19.30;;;;;;;2.20;97.15;98857.94;105238;1324;22174;-80
2022/10/20 01:45:24;;;;;;;27.40;24.80;;;;;;;2.17;96.77;98864.96;105615;1302;22191;-80
2022/10/20 01:47:53;;;;;;;23.30;21.00;;;;;;;2.15;97.02;98867.20;105335;1323;22224;-80
2022/10/20 01:50:23;;;;;;;21.80;19.70;;;;;;;2.11;97.05;98866.74;105611;1317;22363;-80
2022/10/20 01:52:56;;;;;;;19.40;17.60;;;;;;;2.09;97.37;98869.67;105601;1302;22111;-82
2022/10/20 01:55:24;;;;;;;20.30;18.30;;;;;;;2.13;97.56;98866.64;105293;1321;22183;-82
2022/10/20 01:58:14;;;;;;;19.30;17.50;;;;;;;2.17;97.21;98865.77;105246;1324;22706;-80
2022/10/20 02:00:44;;;;;;;28.80;26.40;;;;;;;2.21;96.95;98866.52;105308;1323;22190;-80
2022/10/20 02:03:45;;;;;;;24.20;21.90;;;;;;;2.25;97.05;98864.26;105597;1317;22070;-80
2022/10/20 02:06:49;;;;;;;23.80;21.70;;;;;;;2.27;97.36;98862.65;105507;1317;22161;-80
2022/10/20 02:09:29;;;;;;;27.30;24.80;;;;;;;2.21;96.93;98863.80;105623;1317;22182;-80
2022/10/20 02:12:15;;;;;;;24.30;22.10;;;;;;;2.21;96.99;98863.33;105076;1324;22220;-80
2022/10/20 02:14:44;;;;;;;18.90;17.10;;;;;;;2.25;97.10;98857.59;105267;1324;22217;-81
2022/10/20 02:17:15;;;;;;;18.40;16.60;;;;;;;2.30;96.73;98857.83;105038;1324;22791;-80
2022/10/20 02:19:45;;;;;;;17.70;16.10;;;;;;;2.29;97.04;98856.13;105612;1305;22181;-80
2022/10/20 02:22:15;;;;;;;19.10;17.30;;;;;;;2.26;96.82;98854.20;105318;1300;22081;-80
2022/10/20 02:24:43;;;;;;;17.30;15.80;;;;;;;2.25;97.09;98858.91;105208;1324;22093;-80
2022/10/20 02:27:21;;;;;;;16.70;15.30;;;;;;;2.31;97.32;98856.42;105048;1324;22223;-80
2022/10/20 02:30:06;;;;;;;16.70;15.20;;;;;;;2.38;97.45;98854.42;105630;1302;22963;-80
2022/10/20 02:32:37;;;;;;;16.00;14.40;;;;;;;2.44;97.02;98852.39;105312;1324;22195;-80
2022/10/20 02:35:09;;;;;;;17.50;15.90;;;;;;;2.48;96.87;98855.29;105601;1309;22212;-81
2022/10/20 02:37:37;;;;;;;17.40;16.00;;;;;;;2.49;96.91;98852.66;105575;1316;22066;-81
2022/10/20 02:40:06;;;;;;;19.10;17.30;;;;;;;2.47;96.65;98852.35;105273;1324;22194;-80
2022/10/20 02:42:34;;;;;;;19.60;17.70;;;;;;;2.42;96.55;98852.71;105033;1324;22186;-80
2022/10/20 02:45:02;;;;;;;26.40;23.80;;;;;;;2.36;96.30;98857.11;105289;1324;22259;-81
2022/10/20 02:47:30;;;;;;;28.90;26.20;;;;;;;2.32;96.27;98854.41;105196;1324;22910;-81
2022/10/20 02:49:58;;;;;;;28.30;25.90;;;;;;;2.30;96.31;98853.66;105592;1315;22846;-81
2022/10/20 02:52:26;;;;;;;26.80;24.10;;;;;;;2.28;96.64;98850.94;105630;1317;22171;-81
2022/10/20 02:54:54;;;;;;;26.00;23.50;;;;;;;2.25;96.77;98859.84;105608;1317;22187;-81
2022/10/20 02:57:21;;;;;;;77.90;54.40;;;;;;;2.22;96.84;98860.16;105310;1323;22172;-81
2022/10/20 02:59:49;;;;;;;68.00;49.40;;;;;;;2.22;96.67;98861.83;105275;1324;22943;-81
2022/10/20 03:02:17;;;;;;;33.30;29.80;;;;;;;2.24;96.56;98860.18;105614;1317;22065;-81
2022/10/20 03:04:45;;;;;;;25.70;23.00;;;;;;;2.23;96.40;98869.20;105311;1324;23070;-81
2022/10/20 03:07:13;;;;;;;31.10;26.60;;;;;;;2.16;95.84;98868.87;105305;1324;22125;-80
2022/10/20 03:09:42;;;;;;;39.80;35.90;;;;;;;2.13;96.02;98872.23;105276;1324;22920;-80
2022/10/20 03:12:10;;;;;;;30.40;27.50;;;;;;;2.08;96.18;98872.58;105324;1324;22217;-80
2022/10/20 03:14:39;;;;;;;21.20;19.20;;;;;;;1.99;96.22;98879.00;105305;1324;22166;-80
2022/10/20 03:17:06;;;;;;;24.40;22.10;;;;;;;1.97;96.68;98882.57;105598;1317;22179;-80
2022/10/20 03:19:34;;;;;;;23.40;21.10;;;;;;;1.91;96.12;98886.77;105291;1323;22884;-80
2022/10/20 03:22:02;;;;;;;23.30;20.80;;;;;;;1.85;96.03;98887.59;105581;1317;22114;-80
2022/10/20 03:24:30;;;;;;;22.40;20.30;;;;;;;1.80;95.97;98892.38;105329;1324;22726;-80
2022/10/20 03:26:58;;;;;;;25.20;22.80;;;;;;;1.73;96.14;98898.85;105079;1323;22905;-80
2022/10/20 03:29:25;;;;;;;24.90;22.50;;;;;;;1.71;96.35;98898.26;105064;1324;22263;-80
2022/10/20 03:31:54;;;;;;;18.20;16.50;;;;;;;1.70;96.71;98898.42;105467;1311;22170;-80
2022/10/20 03:34:22;;;;;;;16.90;15.20;;;;;;;1.75;96.96;98898.63;105308;1324;22193;-80
2022/10/20 03:36:50;;;;;;;18.90;16.10;;;;;;;1.81;97.04;98898.37;105638;1315;22191;-80
2022/10/20 03:39:18;;;;;;;18.20;16.20;;;;;;;1.91;97.10;98905.58;105293;1324;22184;-80
2022/10/20 03:41:46;;;;;;;18.80;17.00;;;;;;;1.97;96.87;98906.38;105635;1306;22918;-80
2022/10/20 03:44:14;;;;;;;19.60;17.70;;;;;;;2.01;96.78;98911.01;105283;1317;22353;-79
2022/10/20 03:46:42;;;;;;;20.60;18.50;;;;;;;2.02;96.60;98908.37;105637;1317;22049;-81
2022/10/20 03:49:10;;;;;;;19.00;17.20;;;;;;;1.90;95.96;98907.59;105635;1317;22264;-80
2022/10/20 03:51:38;;;;;;;34.30;30.40;;;;;;;1.80;95.75;98905.70;105226;1324;22840;-80
2022/10/20 03:54:06;;;;;;;42.20;38.20;;;;;;;1.71;95.94;98909.40;105252;1324;22145;-80
2022/10/20 03:56:34;;;;;;;41.10;37.10;;;;;;;1.69;96.28;98908.02;105191;1324;22234;-80
2022/10/20 03:59:02;;;;;;;32.30;29.10;;;;;;;1.75;96.37;98911.18;105170;1324;22202;-80
2022/10/20 04:01:33;;;;;;;38.00;33.90;;;;;;;1.74;96.18;98908.36;105623;1311;22183;-80
2022/10/20 04:04:01;;;;;;;33.60;29.30;;;;;;;1.72;96.22;98903.11;105645;1309;22845;-80
2022/10/20 04:06:29;;;;;;;36.20;30.40;;;;;;;1.69;96.33;98904.55;105593;1302;22188;-80
2022/10/20 04:08:57;;;;;;;31.80;28.50;;;;;;;1.68;96.32;98899.52;105290;1316;22083;-81
2022/10/20 04:11:25;;;;;;;27.10;24.20;;;;;;;1.73;96.40;98899.91;104989;1324;22365;-80
2022/10/20 04:13:53;;;;;;;21.40;19.30;;;;;;;1.76;96.23;98899.52;105307;1317;22213;-81
2022/10/20 04:16:21;;;;;;;21.40;19.40;;;;;;;1.56;95.78;98901.42;105276;1323;22133;-81
2022/10/20 04:18:51;;;;;;;19.30;17.20;;;;;;;1.40;96.21;98901.70;105323;1323;22222;-81
2022/10/20 04:21:19;;;;;;;15.40;14.00;;;;;;;1.27;96.17;98902.92;105054;1324;22195;-81
2022/10/20 04:23:47;;;;;;;19.40;17.50;;;;;;;1.20;96.15;98904.13;105617;1307;22179;-81
2022/10/20 04:26:15;;;;;;;20.60;18.70;;;;;;;1.19;96.14;98904.00;105627;1317;22212;-81
2022/10/20 04:28:43;;;;;;;16.30;14.70;;;;;;;1.19;96.13;98900.16;105283;1324;22184;-82
2022/10/20 04:31:10;;;;;;;15.80;14.10;;;;;;;1.17;96.09;98896.09;105274;1324;22798;-82
2022/10/20 04:33:38;;;;;;;16.80;15.20;;;;;;;1.09;95.88;98897.11;105307;1323;22194;-83
2022/10/20 04:36:10;;;;;;;16.50;14.70;;;;;;;1.01;95.81;98897.45;105227;1324;22094;-80
2022/10/20 04:38:38;;;;;;;12.70;11.40;;;;;;;0.89;95.98;98898.48;105386;1324;22670;-80
2022/10/20 04:41:06;;;;;;;15.10;13.60;;;;;;;0.88;96.20;98900.45;105306;1323;22158;-81
2022/10/20 04:43:34;;;;;;;13.50;11.10;;;;;;;0.84;95.79;98902.18;105612;1316;22164;-80
2022/10/20 04:46:04;;;;;;;16.70;12.40;;;;;;;0.83;95.84;98901.61;105727;1302;22116;-80
2022/10/20 04:48:36;;;;;;;17.40;15.60;;;;;;;0.85;96.03;98897.09;106004;1308;22249;-81
2022/10/20 04:51:08;;;;;;;17.30;15.60;;;;;;;0.85;96.04;98892.55;105667;1317;22170;-81
2022/10/20 04:53:36;;;;;;;30.50;26.50;;;;;;;0.82;95.95;98888.91;105335;1312;22195;-80
2022/10/20 04:56:06;;;;;;;18.20;15.50;;;;;;;0.72;95.64;98892.88;105315;1323;22080;-80
2022/10/20 04:58:34;;;;;;;19.30;17.30;;;;;;;0.63;95.75;98889.73;105314;1315;22130;-80
2022/10/20 05:01:06;;;;;;;18.90;16.50;;;;;;;0.57;95.96;98890.90;105292;1324;22232;-80
2022/10/20 05:03:35;;;;;;;23.40;20.80;;;;;;;0.52;96.10;98893.04;105628;1309;23407;-80
2022/10/20 05:06:28;;;;;;;33.00;27.40;;;;;;;0.49;96.29;98894.10;105052;1324;22119;-80
2022/10/20 05:08:58;;;;;;;30.50;27.50;;;;;;;0.45;96.29;98894.60;105343;1317;22187;-81
2022/10/20 05:11:28;;;;;;;21.90;19.70;;;;;;;0.41;96.38;98899.39;105269;1322;22220;-80
2022/10/20 05:13:56;;;;;;;21.30;18.60;;;;;;;0.32;96.26;98902.02;105049;1324;22190;-79
2022/10/20 05:16:24;;;;;;;21.50;18.10;;;;;;;0.24;96.28;98906.00;105604;1311;22911;-81
2022/10/20 05:18:53;;;;;;;21.60;19.40;;;;;;;0.16;96.43;98908.98;105296;1323;22937;-81
2022/10/20 05:21:24;;;;;;;24.00;21.70;;;;;;;0.08;96.60;98911.65;105304;1324;22208;-83
2022/10/20 05:24:00;;;;;;;28.70;26.20;;;;;;;0.02;96.72;98913.24;105071;1324;22719;-83
2022/10/20 05:26:34;;;;;;;46.10;41.60;;;;;;;-0.05;96.77;98914.73;105068;1324;22810;-82
2022/10/20 05:29:04;;;;;;;29.10;26.30;;;;;;;-0.09;96.86;98915.21;105572;1317;22182;-81
2022/10/20 05:31:36;;;;;;;25.30;22.90;;;;;;;-0.15;96.64;98913.83;105256;1324;22085;-81
2022/10/20 05:34:04;;;;;;;24.40;21.80;;;;;;;-0.14;96.63;98917.78;105062;1324;22221;-81
2022/10/20 05:36:32;;;;;;;35.70;32.40;;;;;;;-0.09;96.94;98919.45;105286;1324;22860;-83
2022/10/20 05:39:00;;;;;;;27.10;24.40;;;;;;;-0.03;96.93;98916.27;105627;1316;22194;-81
2022/10/20 05:41:30;;;;;;;21.70;19.10;;;;;;;-0.00;96.74;98913.30;105589;1308;22071;-80
2022/10/20 05:44:09;;;;;;;18.20;16.30;;;;;;;0.04;96.65;98916.35;105256;1324;22245;-84
2022/10/20 05:46:41;;;;;;;32.10;29.00;;;;;;;0.11;96.86;98921.67;104998;1321;22099;-89
2022/10/20 05:49:15;;;;;;;30.60;27.60;;;;;;;0.25;97.25;98921.70;105621;1309;22137;-83
2022/10/20 05:51:45;;;;;;;35.00;31.70;;;;;;;0.45;97.62;98924.98;105274;1324;22122;-85
2022/10/20 05:54:15;;;;;;;27.80;25.50;;;;;;;0.60;97.50;98928.67;105591;1317;22300;-83
2022/10/20 05:56:43;;;;;;;24.80;22.70;;;;;;;0.71;97.44;98930.84;105290;1323;22119;-85
2022/10/20 05:59:11;;;;;;;19.30;17.40;;;;;;;0.84;97.54;98933.65;105268;1314;22185;-82
2022/10/20 06:01:48;;;;;;;32.10;29.40;;;;;;;1.00;97.80;98934.52;105026;1324;22238;-81
2022/10/20 06:04:22;;;;;;;26.50;24.10;;;;;;;1.19;97.86;98932.43;105315;1324;22199;-84
2022/10/20 06:06:51;;;;;;;20.90;18.80;;;;;;;1.37;97.69;98928.20;105565;1316;22010;-81
2022/10/20 06:09:20;;;;;;;18.20;16.40;;;;;;;1.51;97.64;98932.89;105551;1317;22214;-79
2022/10/20 06:11:50;;;;;;;72.90;66.90;;;;;;;1.66;97.57;98936.19;104977;1324;22275;-80
2022/10/20 06:14:21;;;;;;;31.80;29.20;;;;;;;1.80;98.05;98929.73;105315;1324;22083;-80
2022/10/20 06:16:51;;;;;;;22.00;19.90;;;;;;;1.94;98.08;98930.33;105053;1324;22815;-82
2022/10/20 06:19:19;;;;;;;30.60;27.70;;;;;;;2.04;97.86;98933.80;105233;1324;22160;-81
2022/10/20 06:21:46;;;;;;;28.30;25.40;;;;;;;2.20;98.08;98932.44;105077;1324;22246;-80
2022/10/20 06:24:17;;;;;;;24.20;19.90;;;;;;;2.38;98.16;98929.83;105639;1315;22162;-80
2022/10/20 06:26:45;;;;;;;30.30;27.20;;;;;;;2.51;97.79;98933.42;105687;1316;22195;-81
2022/10/20 06:29:16;;;;;;;24.30;21.80;;;;;;;2.64;98.02;98935.14;105620;1311;22191;-80
2022/10/20 06:31:46;;;;;;;21.20;19.00;;;;;;;2.76;98.39;98931.08;105351;1323;22155;-82
2022/10/20 06:34:20;;;;;;;17.70;16.00;;;;;;;2.86;98.27;98930.50;105743;1315;22190;-85
2022/10/20 06:36:49;;;;;;;16.50;15.10;;;;;;;2.97;98.16;98931.96;105659;1315;22143;-83
2022/10/20 06:39:21;;;;;;;18.50;16.50;;;;;;;3.08;97.96;98935.58;105329;1324;22295;-83
2022/10/20 06:41:54;;;;;;;20.40;18.30;;;;;;;3.28;98.98;98930.54;105138;1324;22211;-84
2022/10/20 06:44:24;;;;;;;22.30;20.40;;;;;;;3.48;98.98;98934.61;105353;1324;22112;-82
2022/10/20 06:46:53;;;;;;;22.80;20.00;;;;;;;3.66;99.14;98931.14;105122;1324;22776;-81
2022/10/20 06:49:22;;;;;;;28.20;21.80;;;;;;;3.82;99.06;98929.50;105793;1317;22185;-81
2022/10/20 06:51:51;;;;;;;24.90;22.30;;;;;;;3.97;98.78;98938.08;105148;1324;22268;-81
2022/10/20 06:54:21;;;;;;;26.50;23.80;;;;;;;4.13;98.76;98939.89;105661;1316;22058;-83
2022/10/20 06:56:49;;;;;;;27.60;24.70;;;;;;;4.26;98.60;98942.39;105394;1324;22266;-83
2022/10/20 06:59:17;;;;;;;46.50;41.30;;;;;;;4.38;98.31;98939.45;105688;1317;22061;-84
2022/10/20 07:01:45;;;;;;;52.20;45.00;;;;;;;4.47;98.43;98938.54;105726;1302;22568;-84
2022/10/20 07:04:14;;;;;;;35.00;31.20;;;;;;;4.57;98.85;98932.23;105506;1317;22100;-84
2022/10/20 07:06:44;;;;;;;29.20;26.20;;;;;;;4.71;98.86;98930.14;105712;1308;22810;-84
2022/10/20 07:09:19;;;;;;;26.50;22.00;;;;;;;4.82;98.64;98935.33;105749;1308;22072;-85
2022/10/20 07:11:51;;;;;;;27.60;23.20;;;;;;;4.93;98.45;98934.37;105391;1324;22202;-83
2022/10/20 07:14:19;;;;;;;25.90;22.90;;;;;;;5.02;98.65;98935.19;105174;1324;22211;-84
2022/10/20 07:16:48;;;;;;;27.20;22.10;;;;;;;5.09;98.55;98935.33;105356;1324;22205;-83
2022/10/20 07:19:16;;;;;;;20.50;18.30;;;;;;;5.18;98.62;98938.61;105162;1324;23100;-85
2022/10/20 07:21:44;;;;;;;24.50;17.60;;;;;;;5.31;98.37;98940.13;105767;1317;22236;-84
2022/10/20 07:24:14;;;;;;;19.90;18.00;;;;;;;5.42;98.54;98939.84;105394;1318;22127;-84
2022/10/20 07:26:43;;;;;;;22.10;20.00;;;;;;;5.54;98.55;98935.63;105822;1313;22173;-86
2022/10/20 07:29:13;;;;;;;20.30;16.50;;;;;;;5.65;98.63;98936.48;105580;1318;22090;-86
2022/10/20 07:31:44;;;;;;;20.70;15.80;;;;;;;5.73;98.46;98939.28;105788;1305;22301;-87
2022/10/20 07:34:16;;;;;;;15.00;13.30;;;;;;;5.83;98.18;98938.23;105807;1315;22282;-86
2022/10/20 07:36:56;;;;;;;12.90;11.10;;;;;;;5.92;97.92;98939.77;105501;1324;22213;-89
2022/10/20 07:39:24;;;;;;;10.80;9.70;;;;;;;5.98;97.50;98934.91;105783;1315;22151;-85
2022/10/20 07:41:54;;;;;;;16.50;10.40;;;;;;;6.00;97.16;98935.58;105396;1324;22938;-85
2022/10/20 07:44:22;;;;;;;11.80;10.60;;;;;;;6.01;97.43;98936.08;105399;1318;22226;-86
2022/10/20 07:46:50;;;;;;;10.70;9.60;;;;;;;6.05;97.24;98939.52;105731;1302;22127;-86
2022/10/20 07:49:19;;;;;;;21.60;15.20;;;;;;;6.09;97.36;98942.09;105341;1324;22149;-91
2022/10/20 07:52:07;;;;;;;13.70;8.00;;;;;;;6.19;97.26;98937.54;105335;1318;22923;-83
2022/10/20 07:54:37;;;;;;;14.30;8.80;;;;;;;6.29;97.07;98934.31;105680;1317;22193;-85
2022/10/20 07:57:06;;;;;;;11.70;8.90;;;;;;;6.35;96.82;98938.27;105365;1323;22867;-85
2022/10/20 07:59:34;;;;;;;10.20;8.20;;;;;;;6.39;96.75;98940.57;105029;1323;22069;-87
2022/10/20 08:02:02;;;;;;;9.10;8.10;;;;;;;6.44;96.65;98943.58;105060;1324;22083;-87
2022/10/20 08:04:30;;;;;;;12.50;8.50;;;;;;;6.51;96.85;98950.55;105791;1316;22118;-91
2022/10/20 08:06:59;;;;;;;9.30;7.30;;;;;;;6.59;96.62;98948.52;105389;1318;22242;-91
2022/10/20 08:09:27;;;;;;;9.50;7.70;;;;;;;6.67;95.90;98952.05;105515;1314;22089;-86
2022/10/20 08:12:02;;;;;;;18.60;11.30;;;;;;;6.74;95.85;98951.17;105460;1324;22123;-87
2022/10/20 08:14:32;;;;;;;34.20;9.70;;;;;;;6.84;96.12;98948.46;105561;1285;23038;-87
2022/10/20 08:17:02;;;;;;;17.20;7.20;;;;;;;6.96;96.00;98950.17;105570;1314;22268;-89
2022/10/20 08:19:30;;;;;;;9.10;7.20;;;;;;;7.05;95.60;98950.56;105498;1322;22097;-89
2022/10/20 08:22:08;;;;;;;11.90;7.10;;;;;;;7.06;94.80;98948.59;106214;1314;22987;-86
2022/10/20 08:24:36;;;;;;;8.80;6.30;;;;;;;7.12;94.75;98941.95;106208;1301;22095;-86
2022/10/20 08:27:04;;;;;;;12.70;6.70;;;;;;;7.18;93.68;98938.98;106071;1314;22148;-86
2022/10/20 08:29:32;;;;;;;9.00;6.70;;;;;;;7.28;94.12;98936.55;105570;1323;22907;-91
2022/10/20 08:32:00;;;;;;;12.10;6.70;;;;;;;7.38;94.05;98936.66;105349;1324;22211;-89
2022/10/20 08:34:28;;;;;;;9.10;6.20;;;;;;;7.42;93.36;98934.30;105616;1304;22817;-89
2022/10/20 08:36:56;;;;;;;9.70;7.20;;;;;;;7.50;93.90;98931.96;105926;1309;22695;-88
2022/10/20 08:39:24;;;;;;;11.70;7.10;;;;;;;7.59;92.93;98937.58;105903;1314;22175;-89
2022/10/20 08:41:53;;;;;;;9.60;5.90;;;;;;;7.66;93.13;98939.09;105754;1305;22811;-92
2022/10/20 08:44:37;;;;;;;8.80;5.90;;;;;;;7.80;93.23;98944.84;105906;1314;22181;-86
2022/10/20 08:47:15;;;;;;;8.10;5.30;;;;;;;7.85;91.46;98941.09;105894;1314;22204;-91
2022/10/20 08:49:44;;;;;;;9.70;5.30;;;;;;;7.94;92.15;98933.42;105351;1323;22176;-89
2022/10/20 08:52:16;;;;;;;9.20;5.90;;;;;;;8.10;92.22;98932.75;105425;1322;22105;-89
2022/10/20 08:54:47;;;;;;;8.70;5.00;;;;;;;8.25;92.41;98926.79;105662;1308;22832;-88
2022/10/20 08:57:22;;;;;;;9.50;5.50;;;;;;;8.37;91.43;98928.61;105422;1323;22247;-86
2022/10/20 08:59:52;;;;;;;7.60;5.60;;;;;;;8.41;90.37;98925.21;105791;1316;22190;-84
2022/10/20 09:02:21;;;;;;;7.20;5.40;;;;;;;8.47;90.30;98921.81;105890;1314;22179;-83
2022/10/20 09:04:54;;;;;;;9.60;5.30;;;;;;;8.52;89.59;98918.67;105617;1317;22190;-83
2022/10/20 09:07:29;;;;;;;13.70;6.20;;;;;;;8.54;88.24;98917.07;105409;1321;22214;-84
2022/10/20 09:10:06;;;;;;;8.90;5.10;;;;;;;8.56;86.51;98916.80;105900;1298;22715;-85
2022/10/20 09:12:37;;;;;;;7.40;4.80;;;;;;;8.60;87.39;98916.40;105878;1306;23057;-83
2022/10/20 09:15:07;;;;;;;7.20;4.60;;;;;;;8.67;86.18;98914.48;105860;1309;22137;-85
2022/10/20 09:17:35;;;;;;;8.40;6.50;;;;;;;8.72;86.05;98910.81;105616;1309;22888;-87
2022/10/20 09:20:12;;;;;;;11.40;7.90;;;;;;;8.77;85.62;98909.60;105084;1324;22240;-86
2022/10/20 09:22:40;;;;;;;6.70;4.60;;;;;;;8.81;84.53;98907.48;105836;1300;22119;-87
2022/10/20 09:25:15;;;;;;;5.90;4.10;;;;;;;8.79;84.35;98909.23;105434;1323;22205;-89
2022/10/20 09:27:44;;;;;;;6.00;4.30;;;;;;;8.82;84.25;98911.83;105642;1308;22354;-85
2022/10/20 09:30:20;;;;;;;4.90;4.00;;;;;;;8.84;84.58;98906.46;105812;1306;22836;-87
2022/10/20 09:32:49;;;;;;;5.30;4.60;;;;;;;8.91;85.09;98905.15;105105;1324;22113;-90
2022/10/20 09:35:27;;;;;;;10.10;7.50;;;;;;;9.04;85.51;98907.08;105802;1316;22179;-89
2022/10/20 09:38:32;;;;;;;10.50;6.40;;;;;;;9.21;84.41;98905.90;105615;1316;22164;-90
2022/10/20 09:41:14;;;;;;;13.00;6.50;;;;;;;9.33;83.30;98903.94;104681;1324;22774;-86
2022/10/20 09:43:53;;;;;;;8.20;5.70;;;;;;;9.43;83.67;98909.44;104950;1321;22946;-86
2022/10/20 09:46:28;;;;;;;9.90;5.60;;;;;;;9.57;83.21;98910.05;104965;1329;22233;-84
2022/10/20 09:48:57;;;;;;;6.10;4.90;;;;;;;9.69;83.36;98906.95;104715;1330;23020;-84
2022/10/20 09:51:27;;;;;;;6.40;5.10;;;;;;;9.72;82.78;98899.52;104709;1330;22250;-85
2022/10/20 09:54:04;;;;;;;7.40;4.50;;;;;;;9.74;80.36;98899.64;104931;1301;22118;-86
2022/10/20 09:56:35;;;;;;;19.30;5.40;;;;;;;9.71;78.95;98898.23;104617;1328;22179;-91
2022/10/20 09:59:18;;;;;;;12.40;4.70;;;;;;;9.71;80.46;98895.80;104867;1325;22228;-86
2022/10/20 10:02:00;;;;;;;4.60;3.90;;;;;;;9.82;80.31;98896.24;104708;1336;22199;-86
2022/10/20 10:04:37;;;;;;;4.90;3.80;;;;;;;9.95;79.87;98892.91;104713;1330;22193;-87
2022/10/20 10:07:25;;;;;;;6.90;3.90;;;;;;;10.05;79.98;98888.43;104624;1331;154003;-84
2022/10/20 10:10:00;;;;;;;4.50;3.20;;;;;;;10.16;78.09;98895.05;104611;1336;22198;-84
2022/10/20 10:12:35;;;;;;;5.80;3.30;;;;;;;10.25;78.40;98891.48;104922;1327;22605;-84
2022/10/20 10:15:17;;;;;;;3.80;3.40;;;;;;;10.30;76.85;98888.15;105014;1327;22190;-84
2022/10/20 10:17:45;;;;;;;8.50;4.00;;;;;;;10.40;77.22;98887.49;105782;1316;22079;-86
2022/10/20 10:20:13;;;;;;;7.50;4.40;;;;;;;10.51;76.92;98887.03;105448;1324;22768;-91
2022/10/20 10:22:42;;;;;;;10.60;5.00;;;;;;;10.54;76.32;98879.84;105416;1321;22307;-88
2022/10/20 10:25:24;;;;;;;10.10;4.90;;;;;;;10.64;76.07;98886.98;105417;1324;22757;-90
2022/10/20 10:28:19;;;;;;;7.00;4.20;;;;;;;10.67;76.00;98891.17;105421;1324;22225;-91
2022/10/20 10:30:47;;;;;;;8.90;4.30;;;;;;;10.60;74.80;98888.03;105839;1317;22199;-91
2022/10/20 10:33:25;;;;;;;7.90;4.10;;;;;;;10.60;73.63;98889.64;105383;1316;22136;-93
2022/10/20 10:35:54;;;;;;;6.30;4.40;;;;;;;10.63;72.81;98889.80;105284;1326;22853;-88
2022/10/20 10:38:21;;;;;;;7.60;4.70;;;;;;;10.66;72.23;98885.46;105079;1328;22271;-89
2022/10/20 10:41:05;;;;;;;6.50;3.50;;;;;;;10.66;69.51;98881.70;105794;1316;22178;-88
2022/10/20 10:43:42;;;;;;;4.20;3.10;;;;;;;10.72;70.98;98878.67;105644;1316;22202;-85
2022/10/20 10:46:17;;;;;;;5.30;3.30;;;;;;;10.80;71.33;98872.96;105808;1316;22237;-86
2022/10/20 10:49:10;;;;;;;5.70;2.90;;;;;;;10.85;71.57;98873.48;105381;1322;22219;-88
2022/10/20 10:51:52;;;;;;;20.70;5.50;;;;;;;10.99;71.37;98869.49;105810;1308;22857;-85
2022/10/20 10:54:41;;;;;;;5.50;4.60;;;;;;;11.09;71.61;98863.50;105604;1320;22685;-88
2022/10/20 10:57:25;;;;;;;5.80;3.90;;;;;;;11.18;70.05;98859.45;105314;1325;22229;-88
2022/10/20 10:59:55;;;;;;;4.50;3.60;;;;;;;11.26;70.31;98862.80;105808;1316;22200;-90
2022/10/20 11:02:36;;;;;;;5.40;3.20;;;;;;;11.31;69.39;98862.61;105786;1316;22186;-90
2022/10/20 11:05:17;;;;;;;6.20;3.80;;;;;;;11.41;70.17;98861.63;105798;1315;22663;-87
2022/10/20 11:08:10;;;;;;;9.20;5.00;;;;;;;11.54;68.79;98856.48;105394;1323;22206;-87
2022/10/20 11:11:14;;;;;;;6.70;4.70;;;;;;;11.65;68.80;98856.76;105258;1326;22816;-88
2022/10/20 11:14:11;;;;;;;8.30;4.20;;;;;;;11.72;68.42;98848.83;105310;1324;22088;-89
2022/10/20 11:16:45;;;;;;;9.70;4.10;;;;;;;11.89;67.32;98847.41;104622;1336;22165;-89
2022/10/20 11:19:23;;;;;;;9.50;3.90;;;;;;;12.03;67.82;98842.64;104546;1330;22770;-89
2022/10/20 11:22:03;;;;;;;6.10;4.20;;;;;;;12.19;65.95;98842.59;104595;1332;22254;-91
2022/10/20 11:25:16;;;;;;;7.20;4.30;;;;;;;12.38;70.67;98835.84;104606;1336;22929;-91
2022/10/20 11:27:44;;;;;;;6.70;4.40;;;;;;;12.84;67.35;98828.11;104720;1332;22918;-90
2022/10/20 11:30:20;;;;;;;10.60;4.70;;;;;;;13.02;65.86;98823.54;104594;1336;22190;-94
2022/10/20 11:32:58;;;;;;;10.10;3.70;;;;;;;13.21;65.18;98821.64;104610;1336;22239;-91
2022/10/20 11:35:49;;;;;;;7.00;4.10;;;;;;;13.36;64.75;98812.73;104781;1332;22163;-95
2022/10/20 11:42:29;;;;;;;7.60;4.60;;;;;;;13.87;64.57;98806.41;104711;1332;22200;-94
2022/10/20 11:45:00;;;;;;;9.80;5.90;;;;;;;14.11;63.23;98807.79;104569;1336;22447;-88
2022/10/20 11:47:37;;;;;;;8.60;5.00;;;;;;;14.08;61.97;98801.44;104537;1335;22096;-88